createdAt,value
2018-03-04T00:02:06.275Z,56.34
2018-03-04T00:04:33.832Z,56.90
2018-03-04T00:07:01.307Z,56.78
2018-03-04T00:09:28.849Z,56.98
2018-03-04T00:11:56.430Z,56.42
2018-03-04T00:14:23.955Z,55.88
2018-03-04T00:16:51.468Z,56.51
2018-03-04T00:19:18.931Z,56.42
2018-03-04T00:21:46.426Z,56.21
2018-03-04T00:24:13.934Z,56.37
2018-03-04T00:26:41.447Z,56.91
2018-03-04T00:29:09.163Z,56.94
2018-03-04T00:31:36.718Z,57.18
2018-03-04T00:34:04.195Z,57.43
2018-03-04T00:36:31.678Z,57.28
2018-03-04T00:38:59.198Z,56.66
2018-03-04T00:41:26.679Z,56.35
2018-03-04T00:43:55.372Z,56.57
2018-03-04T00:46:22.943Z,57.26
2018-03-04T00:48:50.426Z,57.05
2018-03-04T00:51:17.944Z,57.41
2018-03-04T00:53:45.462Z,57.75
2018-03-04T00:56:12.962Z,57.80
2018-03-04T00:58:40.801Z,58.36
2018-03-04T01:01:08.350Z,58.29
2018-03-04T01:03:35.825Z,58.59
2018-03-04T01:06:07.374Z,58.96
2018-03-04T01:08:35.159Z,59.12
2018-03-04T01:11:02.724Z,59.44
2018-03-04T01:13:30.244Z,59.54
2018-03-04T01:15:57.741Z,58.88
2018-03-04T01:18:25.981Z,59.10
2018-03-04T01:20:53.454Z,59.30
2018-03-04T01:23:20.976Z,58.75
2018-03-04T01:25:48.499Z,59.15
2018-03-04T01:28:16.858Z,59.56
2018-03-04T01:30:44.455Z,58.92
2018-03-04T01:35:38.744Z,60.04
2018-03-04T01:38:06.253Z,59.11
2018-03-04T01:40:33.833Z,59.23
2018-03-04T01:43:01.440Z,59.84
2018-03-04T01:45:28.967Z,59.81
2018-03-04T01:47:56.503Z,59.60
2018-03-04T01:50:24.019Z,59.83
2018-03-04T01:52:51.508Z,59.66
2018-03-04T01:55:19.095Z,58.89
2018-03-04T01:57:46.578Z,58.43
2018-03-04T02:00:14.119Z,57.76
2018-03-04T02:02:41.588Z,58.25
2018-03-04T02:05:09.105Z,58.51
2018-03-04T02:07:36.568Z,58.51
2018-03-04T02:10:04.128Z,57.80
2018-03-04T02:12:31.617Z,57.91
2018-03-04T02:14:59.160Z,58.25
2018-03-04T02:17:26.651Z,58.59
2018-03-04T02:19:54.138Z,57.84
2018-03-04T02:22:21.617Z,57.39
2018-03-04T02:24:49.411Z,58.48
2018-03-04T02:27:16.936Z,58.55
2018-03-04T02:29:44.425Z,58.17
2018-03-04T02:32:12.342Z,58.67
2018-03-04T02:34:39.832Z,58.26
2018-03-04T02:37:07.394Z,58.22
2018-03-04T02:39:34.958Z,58.89
2018-03-04T02:42:02.447Z,58.86
2018-03-04T02:44:30.735Z,59.93
2018-03-04T02:46:58.205Z,59.34
2018-03-04T02:49:25.703Z,58.46
2018-03-04T02:51:53.206Z,59.20
2018-03-04T02:54:20.675Z,60.04
2018-03-04T02:56:48.963Z,59.69
2018-03-04T02:59:16.455Z,59.67
2018-03-04T03:01:43.926Z,60.39
2018-03-04T03:04:11.449Z,60.40
2018-03-04T03:06:38.941Z,61.13
2018-03-04T03:09:06.402Z,60.91
2018-03-04T03:11:33.871Z,60.61
2018-03-04T03:14:01.349Z,61.26
2018-03-04T03:16:29.606Z,60.91
2018-03-04T03:18:57.076Z,60.58
2018-03-04T03:21:24.525Z,61.13
2018-03-04T03:23:51.994Z,61.32
2018-03-04T03:26:19.490Z,61.31
2018-03-04T03:28:46.952Z,61.02
2018-03-04T03:31:14.445Z,61.26
2018-03-04T03:33:41.927Z,60.00
2018-03-04T03:36:09.410Z,59.97
2018-03-04T03:38:37.058Z,60.54
2018-03-04T03:41:04.506Z,60.98
2018-03-04T03:43:31.967Z,60.60
2018-03-04T03:45:59.495Z,60.65
2018-03-04T03:48:27.408Z,60.50
2018-03-04T03:50:54.895Z,60.26
2018-03-04T03:53:22.376Z,60.14
2018-03-04T03:55:49.840Z,60.29
2018-03-04T03:58:17.299Z,59.90
2018-03-04T04:00:44.843Z,59.73
2018-03-04T04:03:12.616Z,59.80
2018-03-04T04:05:40.208Z,60.23
2018-03-04T04:08:07.682Z,60.17
2018-03-04T04:10:35.136Z,60.18
2018-03-04T04:13:02.806Z,59.32
2018-03-04T04:15:30.268Z,60.19
2018-03-04T04:17:57.739Z,59.78
2018-03-04T04:20:25.222Z,60.44
2018-03-04T04:22:52.712Z,60.82
2018-03-04T04:25:20.176Z,60.31
2018-03-04T04:27:47.654Z,60.21
2018-03-04T04:30:15.122Z,60.35
2018-03-04T04:32:42.684Z,61.10
2018-03-04T04:35:10.228Z,61.23
2018-03-04T04:37:37.756Z,61.23
2018-03-04T04:40:05.234Z,61.21
2018-03-04T04:42:32.711Z,60.71
2018-03-04T04:45:00.179Z,60.23
2018-03-04T04:47:27.660Z,60.31
2018-03-04T04:49:55.136Z,60.63
2018-03-04T04:52:22.616Z,59.39
2018-03-04T04:54:50.089Z,59.92
2018-03-04T04:57:17.677Z,60.44
2018-03-04T04:59:45.154Z,60.08
2018-03-04T05:02:12.627Z,60.51
2018-03-04T05:04:40.096Z,60.15
2018-03-04T05:07:07.646Z,60.60
2018-03-04T05:09:35.123Z,60.87
2018-03-04T05:12:02.640Z,61.41
2018-03-04T05:14:30.350Z,59.87
2018-03-04T05:16:57.839Z,60.51
2018-03-04T05:19:25.357Z,59.80
2018-03-04T05:21:52.823Z,60.14
2018-03-04T05:24:20.292Z,60.73
2018-03-04T05:26:47.744Z,60.73
2018-03-04T05:29:16.091Z,60.53
2018-03-04T05:31:43.556Z,60.72
2018-03-04T05:34:11.079Z,60.41
2018-03-04T05:36:38.693Z,60.48
2018-03-04T05:39:06.370Z,60.85
2018-03-04T05:41:33.851Z,60.77
2018-03-04T05:44:01.315Z,61.12
2018-03-04T05:46:29.663Z,60.49
2018-03-04T05:48:57.123Z,60.77
2018-03-04T05:51:24.608Z,60.43
2018-03-04T05:53:52.114Z,60.80
2018-03-04T05:56:19.616Z,62.00
2018-03-04T05:58:47.108Z,62.85
2018-03-04T06:01:14.564Z,63.64
2018-03-04T06:03:42.087Z,64.18
2018-03-04T06:06:09.543Z,64.30
2018-03-04T06:08:37.207Z,64.29
2018-03-04T06:11:04.743Z,64.17
2018-03-04T06:13:32.202Z,64.08
2018-03-04T06:15:59.675Z,64.34
2018-03-04T06:18:27.212Z,63.51
2018-03-04T06:20:54.696Z,63.97
2018-03-04T06:23:22.400Z,64.20
2018-03-04T06:25:49.960Z,64.09
2018-03-04T06:28:17.453Z,64.20
2018-03-04T06:30:44.968Z,64.29
2018-03-04T06:33:12.445Z,63.92
2018-03-04T06:35:39.938Z,63.72
2018-03-04T06:38:07.419Z,63.83
2018-03-04T06:40:35.961Z,63.70
2018-03-04T06:43:03.425Z,63.71
2018-03-04T06:45:30.895Z,63.68
2018-03-04T06:47:58.448Z,62.64
2018-03-04T06:50:25.914Z,61.83
2018-03-04T06:52:53.387Z,61.28
2018-03-04T06:55:20.865Z,60.66
2018-03-04T06:57:48.331Z,60.19
2018-03-04T07:00:15.814Z,59.90
2018-03-04T07:02:43.299Z,60.02
2018-03-04T07:05:10.794Z,59.67
2018-03-04T07:07:38.248Z,58.55
2018-03-04T07:10:05.714Z,58.14
2018-03-04T07:12:33.167Z,57.30
2018-03-04T07:15:00.635Z,57.38
2018-03-04T07:17:28.162Z,56.71
2018-03-04T07:19:55.621Z,56.17
2018-03-04T07:22:23.132Z,56.24
2018-03-04T07:24:50.607Z,56.25
2018-03-04T07:27:18.216Z,56.59
2018-03-04T07:29:45.710Z,56.21
2018-03-04T07:32:13.323Z,55.70
2018-03-04T07:34:40.820Z,55.25
2018-03-04T07:37:08.358Z,54.90
2018-03-04T07:39:35.852Z,52.82
2018-03-04T07:42:03.310Z,52.04
2018-03-04T07:44:31.940Z,50.74
2018-03-04T07:46:59.501Z,50.08
2018-03-04T07:49:27.015Z,49.76
2018-03-04T07:51:54.858Z,49.24
2018-03-04T07:54:22.526Z,49.06
2018-03-04T07:56:50.471Z,48.99
2018-03-04T07:59:17.927Z,49.18
2018-03-04T08:01:45.430Z,49.08
2018-03-04T08:04:12.942Z,48.86
2018-03-04T08:06:40.445Z,48.62
2018-03-04T08:09:07.953Z,47.90
2018-03-04T08:11:35.413Z,48.34
2018-03-04T08:14:02.979Z,48.41
2018-03-04T08:16:30.596Z,48.35
2018-03-04T08:18:58.051Z,47.90
2018-03-04T08:21:25.538Z,47.08
2018-03-04T08:23:53.016Z,47.56
2018-03-04T08:26:32.403Z,47.53
2018-03-04T08:28:59.887Z,48.09
2018-03-04T08:31:27.350Z,48.86
2018-03-04T08:33:54.866Z,48.54
2018-03-04T08:36:22.331Z,48.50
2018-03-04T08:38:49.792Z,48.21
2018-03-04T08:41:17.348Z,48.50
2018-03-04T08:43:44.830Z,48.27
2018-03-04T08:46:12.294Z,47.47
2018-03-04T08:48:39.860Z,47.20
2018-03-04T08:51:07.423Z,46.52
2018-03-04T08:53:34.887Z,46.41
2018-03-04T08:56:02.684Z,45.99
2018-03-04T08:58:30.148Z,45.38
2018-03-04T09:00:57.599Z,45.74
2018-03-04T09:03:25.176Z,44.72
2018-03-04T09:05:52.650Z,44.42
2018-03-04T09:08:20.143Z,44.20
2018-03-04T09:10:47.620Z,43.83
2018-03-04T09:13:15.127Z,43.15
2018-03-04T09:15:42.615Z,43.18
2018-03-04T09:18:10.252Z,43.67
2018-03-04T09:20:37.761Z,43.25
2018-03-04T09:23:05.250Z,42.40
2018-03-04T09:25:32.765Z,42.02
2018-03-04T09:28:00.208Z,41.69
2018-03-04T09:30:27.772Z,41.79
2018-03-04T09:32:55.345Z,41.33
2018-03-04T09:35:22.855Z,41.65
2018-03-04T09:37:50.373Z,41.43
2018-03-04T09:40:17.880Z,40.45
2018-03-04T09:42:45.707Z,40.85
2018-03-04T09:45:13.488Z,40.91
2018-03-04T09:47:40.978Z,40.90
2018-03-04T09:50:08.466Z,41.05
2018-03-04T09:52:35.932Z,41.27
2018-03-04T09:55:03.412Z,41.39
2018-03-04T09:57:30.914Z,39.95
2018-03-04T09:59:58.470Z,41.64
2018-03-04T10:02:26.030Z,40.62
2018-03-04T10:04:53.503Z,40.61
2018-03-04T10:07:21.458Z,40.72
2018-03-04T10:09:48.938Z,40.38
2018-03-04T10:12:16.416Z,40.33
2018-03-04T10:14:44.444Z,40.18
2018-03-04T10:17:11.904Z,40.19
2018-03-04T10:19:39.381Z,40.92
2018-03-04T10:22:06.914Z,40.67
2018-03-04T10:24:34.467Z,41.09
2018-03-04T10:27:01.968Z,41.20
2018-03-04T10:29:29.478Z,41.48
2018-03-04T10:31:56.980Z,42.24
2018-03-04T10:34:24.457Z,41.51
2018-03-04T10:36:51.969Z,41.52
2018-03-04T10:39:19.501Z,41.98
2018-03-04T10:41:47.019Z,42.03
2018-03-04T10:44:15.311Z,42.00
2018-03-04T10:46:42.853Z,41.83
2018-03-04T10:49:10.320Z,41.83
2018-03-04T10:51:37.776Z,42.49
2018-03-04T10:54:05.750Z,43.05
2018-03-04T10:56:33.917Z,42.69
2018-03-04T10:59:01.472Z,43.10
2018-03-04T11:01:29.675Z,43.11
2018-03-04T11:03:57.168Z,43.83
2018-03-04T11:06:25.337Z,44.19
2018-03-04T11:08:52.860Z,44.50
2018-03-04T11:11:20.412Z,45.23
2018-03-04T11:13:47.915Z,44.97
2018-03-04T11:16:15.551Z,44.71
2018-03-04T11:18:43.042Z,44.23
2018-03-04T11:21:10.536Z,44.68
2018-03-04T11:23:38.283Z,44.37
2018-03-04T11:26:06.779Z,43.89
2018-03-04T11:28:34.755Z,43.82
2018-03-04T11:31:02.318Z,43.79
2018-03-04T11:33:29.830Z,44.26
2018-03-04T11:35:57.323Z,43.72
2018-03-04T11:38:26.244Z,44.56
2018-03-04T11:40:54.638Z,44.79
2018-03-04T11:43:24.481Z,45.20
2018-03-04T11:45:52.407Z,45.07
2018-03-04T11:48:19.916Z,44.92
2018-03-04T11:50:47.412Z,45.37
2018-03-04T11:53:14.984Z,45.98
2018-03-04T11:55:42.470Z,45.62
2018-03-04T11:58:10.896Z,45.31
2018-03-04T12:00:38.398Z,44.42
2018-03-04T12:03:07.236Z,44.10
2018-03-04T12:05:34.929Z,44.25
2018-03-04T12:08:02.436Z,43.39
2018-03-04T12:10:30.302Z,44.00
2018-03-04T12:12:57.792Z,43.74
2018-03-04T12:15:25.279Z,43.48
2018-03-04T12:17:52.764Z,43.57
2018-03-04T12:20:20.310Z,43.23
2018-03-04T12:22:47.816Z,43.73
2018-03-04T12:25:15.459Z,43.57
2018-03-04T12:27:43.697Z,44.59
2018-03-04T12:30:12.792Z,44.29
2018-03-04T12:32:40.440Z,44.61
2018-03-04T12:35:08.137Z,44.58
2018-03-04T12:40:12.069Z,44.30
2018-03-04T12:42:39.594Z,43.38
2018-03-04T12:45:07.119Z,42.56
2018-03-04T12:47:35.424Z,42.69
2018-03-04T12:50:02.919Z,42.80
2018-03-04T12:52:30.690Z,42.06
2018-03-04T12:54:58.771Z,42.77
2018-03-04T12:57:26.347Z,42.55
2018-03-04T12:59:53.780Z,42.45
2018-03-04T13:02:21.354Z,42.35
2018-03-04T13:04:48.854Z,42.22
2018-03-04T13:07:16.378Z,42.28
2018-03-04T13:12:16.409Z,42.69
2018-03-04T13:14:44.899Z,43.57
2018-03-04T13:27:14.335Z,44.80
2018-03-04T13:29:43.979Z,45.12
2018-03-04T13:32:12.641Z,45.59
2018-03-04T13:34:41.902Z,45.20
2018-03-04T13:37:10.949Z,44.83
2018-03-04T13:39:40.238Z,44.68
2018-03-04T13:42:09.152Z,45.18
2018-03-04T13:57:28.147Z,44.50
2018-03-04T13:59:56.267Z,45.27
2018-03-04T14:02:23.977Z,44.67
2018-03-04T14:04:51.682Z,44.49
2018-03-04T14:07:19.356Z,44.75
2018-03-04T14:09:46.994Z,44.87
2018-03-04T14:12:14.720Z,44.94
2018-03-04T14:14:42.637Z,45.07
2018-03-04T14:17:10.844Z,44.39
2018-03-04T14:22:34.312Z,42.34
2018-03-04T14:27:39.054Z,40.45
2018-03-04T14:30:06.670Z,39.78
2018-03-04T14:32:34.254Z,38.72
2018-03-04T14:35:01.760Z,38.29
2018-03-04T14:37:29.270Z,38.52
2018-03-04T14:39:56.884Z,38.26
2018-03-04T14:42:24.928Z,37.97
2018-03-04T14:44:54.537Z,37.36
2018-03-04T14:47:22.640Z,36.66
2018-03-04T14:49:52.866Z,36.93
2018-03-04T14:52:21.475Z,36.58
2018-03-04T14:54:51.722Z,37.14
2018-03-04T14:57:19.932Z,36.17
2018-03-04T14:59:51.360Z,36.85
2018-03-04T15:02:19.736Z,37.65
2018-03-04T15:12:33.109Z,38.40
2018-03-04T15:15:01.914Z,38.44
2018-03-04T15:17:29.608Z,38.94
2018-03-04T15:19:58.270Z,38.80
2018-03-04T15:22:26.027Z,38.93
2018-03-04T15:24:53.733Z,38.48
2018-03-04T15:27:21.312Z,38.56
2018-03-04T15:29:49.093Z,39.31
2018-03-04T15:32:17.026Z,40.27
2018-03-04T15:34:46.426Z,40.53
2018-03-04T15:37:16.243Z,40.85
2018-03-04T15:42:17.304Z,41.57
2018-03-04T15:44:45.050Z,41.61
2018-03-04T15:49:58.490Z,42.96
2018-03-04T15:52:32.728Z,43.94
2018-03-04T15:55:00.975Z,45.05
2018-03-04T16:16:06.013Z,54.16
2018-03-04T16:18:45.086Z,55.15
2018-03-04T16:21:12.876Z,55.93
2018-03-04T16:23:40.909Z,57.32
2018-03-04T16:26:09.183Z,58.67
2018-03-04T16:28:37.033Z,59.24
2018-03-04T16:31:04.875Z,60.46
2018-03-04T16:33:33.481Z,61.33
2018-03-04T16:36:01.094Z,61.89
2018-03-04T16:38:29.977Z,62.81
2018-03-04T16:40:57.804Z,64.20
2018-03-04T16:43:25.359Z,64.99
2018-03-04T16:45:52.916Z,65.54
2018-03-04T16:48:20.564Z,66.31
2018-03-04T16:50:48.195Z,67.27
2018-03-04T16:53:15.744Z,67.49
2018-03-04T16:55:43.852Z,67.71
2018-03-04T16:58:11.374Z,68.56
2018-03-04T17:00:38.969Z,68.97
2018-03-04T17:03:07.047Z,69.26
2018-03-04T17:05:34.640Z,69.63
2018-03-04T17:08:02.160Z,70.04
2018-03-04T17:10:30.232Z,70.36
2018-03-04T17:12:57.767Z,71.18
2018-03-04T17:15:25.348Z,71.21
2018-03-04T17:17:52.983Z,71.60
2018-03-04T17:20:20.622Z,72.08
2018-03-04T17:22:48.235Z,72.54
2018-03-04T17:25:15.844Z,72.91
2018-03-04T17:27:43.482Z,73.22
2018-03-04T17:30:11.100Z,73.91
2018-03-04T17:32:38.832Z,74.34
2018-03-04T17:35:07.326Z,74.62
2018-03-04T17:40:46.647Z,75.53
2018-03-04T18:00:32.201Z,78.75
2018-03-04T18:11:57.427Z,80.35
2018-03-04T18:14:25.206Z,80.78
2018-03-04T18:19:26.216Z,81.26
2018-03-04T18:21:54.129Z,81.19
2018-03-04T18:24:23.240Z,81.38
2018-03-04T18:26:50.998Z,81.70
2018-03-04T18:29:22.195Z,81.91
2018-03-04T18:31:54.728Z,81.90
2018-03-04T18:34:23.573Z,81.79
2018-03-04T18:39:24.531Z,81.76
2018-03-04T18:41:52.637Z,82.02
2018-03-04T18:44:20.468Z,82.38
2018-03-04T18:59:58.833Z,83.06
2018-03-04T19:02:26.441Z,83.13
2018-03-04T19:07:34.308Z,83.52
2018-03-04T19:10:40.418Z,83.43
2018-03-04T19:13:18.463Z,82.91
2018-03-04T19:18:21.739Z,82.84
2018-03-04T19:20:49.399Z,82.80
2018-03-04T19:23:21.941Z,82.76
2018-03-04T19:25:49.734Z,82.28
2018-03-04T19:28:17.726Z,82.36
2018-03-04T19:30:47.194Z,82.92
2018-03-04T19:33:15.004Z,82.77
2018-03-04T19:35:43.228Z,83.22
2018-03-04T19:38:11.042Z,83.59
2018-03-04T19:40:38.668Z,84.18
2018-03-04T19:43:06.348Z,84.32
2018-03-04T19:45:34.078Z,84.44
2018-03-04T19:48:01.901Z,84.63
2018-03-04T19:50:30.823Z,84.88
2018-03-04T19:52:58.825Z,84.83
2018-03-04T19:55:26.388Z,85.13
2018-03-04T19:57:55.727Z,85.07
2018-03-04T20:00:23.610Z,85.12
2018-03-04T20:02:51.267Z,85.26
2018-03-04T20:05:23.674Z,85.27
2018-03-04T20:07:52.656Z,85.36
2018-03-04T20:12:55.807Z,85.62
2018-03-04T20:15:23.725Z,85.71
2018-03-04T20:17:51.807Z,85.80
2018-03-04T20:20:19.686Z,85.67
2018-03-04T20:22:47.340Z,85.33
2018-03-04T20:25:16.201Z,85.21
2018-03-04T20:27:44.428Z,85.46
2018-03-04T20:30:15.076Z,85.74
2018-03-04T20:32:45.565Z,85.30
2018-03-04T20:41:05.481Z,85.16
2018-03-04T20:49:35.157Z,85.43
2018-03-04T21:04:04.440Z,82.90
2018-03-04T21:12:42.027Z,83.97
2018-03-04T21:15:11.082Z,84.05
2018-03-04T21:17:47.386Z,84.09
2018-03-04T22:14:08.402Z,82.42
2018-03-04T22:19:39.208Z,82.52
2018-03-04T22:24:57.717Z,82.28
2018-03-04T22:27:25.223Z,82.56
2018-03-04T22:29:52.974Z,82.56
2018-03-04T22:32:20.515Z,82.70
2018-03-04T22:34:48.009Z,83.01
2018-03-04T22:37:15.540Z,82.64
2018-03-04T22:39:43.019Z,82.95
2018-03-04T22:42:10.611Z,83.04
2018-03-04T22:44:38.155Z,82.96
2018-03-04T22:47:05.609Z,83.10
2018-03-04T22:49:34.154Z,83.04
2018-03-04T22:52:01.636Z,82.98
2018-03-04T22:54:29.115Z,82.23
2018-03-04T22:56:56.579Z,82.19
2018-03-04T22:59:24.087Z,82.21
2018-03-04T23:01:52.295Z,82.06
2018-03-04T23:04:19.823Z,81.99
2018-03-04T23:06:48.427Z,81.92
2018-03-04T23:09:16.218Z,81.70
2018-03-04T23:11:43.713Z,81.87
2018-03-04T23:14:11.290Z,81.74
2018-03-04T23:16:39.059Z,81.88
2018-03-04T23:19:08.057Z,81.33
2018-03-04T23:21:35.876Z,81.13
2018-03-04T23:24:03.370Z,81.38
2018-03-04T23:26:34.544Z,81.41
2018-03-04T23:29:02.012Z,81.39
2018-03-04T23:31:30.932Z,81.29
2018-03-04T23:33:58.495Z,81.36
2018-03-04T23:36:28.497Z,81.18
2018-03-04T23:38:57.157Z,81.07
2018-03-04T23:41:24.889Z,80.82
2018-03-04T23:43:52.494Z,80.40
2018-03-04T23:46:19.963Z,80.66
2018-03-04T23:48:48.035Z,80.63
2018-03-04T23:51:16.317Z,80.99
2018-03-04T23:53:43.781Z,80.95
2018-03-04T23:56:11.792Z,80.72
2018-03-04T23:58:39.360Z,80.98
